TimeMDT,TemperatureF,Dew PointF,Humidity,Sea Level PressureIn,VisibilityMPH,Wind Direction,Wind SpeedMPH,Gust SpeedMPH,PrecipitationIn,Events,Conditions,WindDirDegrees,DateUTC
12:15 AM,62.6,50.0,63,30.02,10.0,NW,5.8,-,N/A,,Clear,310,2013-08-24 06:15:00
12:35 AM,62.6,50.0,63,30.02,10.0,WNW,6.9,-,N/A,,Scattered Clouds,300,2013-08-24 06:35:00
12:55 AM,62.6,50.0,63,30.02,10.0,WNW,6.9,-,N/A,,Mostly Cloudy,300,2013-08-24 06:55:00
1:15 AM,62.6,48.2,59,30.02,10.0,NW,5.8,-,N/A,,Scattered Clouds,310,2013-08-24 07:15:00
1:35 AM,60.8,48.2,63,30.02,10.0,NW,5.8,-,N/A,,Clear,320,2013-08-24 07:35:00
1:55 AM,60.8,46.4,59,30.02,10.0,NW,6.9,-,N/A,,Clear,310,2013-08-24 07:55:00
2:15 AM,60.8,46.4,59,30.02,10.0,NW,8.1,-,N/A,,Clear,320,2013-08-24 08:15:00
2:35 AM,60.8,46.4,59,30.02,10.0,WNW,4.6,-,N/A,,Clear,300,2013-08-24 08:35:00
2:55 AM,60.8,46.4,59,30.02,10.0,WNW,5.8,-,N/A,,Clear,290,2013-08-24 08:55:00
3:15 AM,60.8,44.6,55,30.02,7.0,WNW,3.5,-,N/A,,Clear,300,2013-08-24 09:15:00
3:35 AM,59.0,44.6,59,30.04,10.0,NW,4.6,-,N/A,,Clear,320,2013-08-24 09:35:00
3:55 AM,59.0,44.6,59,30.04,10.0,NW,5.8,-,N/A,,Clear,310,2013-08-24 09:55:00
4:15 AM,59.0,44.6,59,30.05,10.0,NW,9.2,-,N/A,,Clear,320,2013-08-24 10:15:00
4:35 AM,57.2,44.6,63,30.05,7.0,WNW,6.9,-,N/A,,Clear,300,2013-08-24 10:35:00
4:55 AM,55.4,42.8,63,30.06,7.0,NW,6.9,-,N/A,,Clear,320,2013-08-24 10:55:00
5:15 AM,55.4,42.8,63,30.05,7.0,NW,5.8,-,N/A,,Clear,310,2013-08-24 11:15:00
5:35 AM,55.4,42.8,63,30.06,7.0,NW,9.2,-,N/A,,Clear,320,2013-08-24 11:35:00
5:55 AM,55.4,42.8,63,30.06,5.0,NNW,6.9,-,N/A,,Haze,340,2013-08-24 11:55:00
6:15 AM,55.4,42.8,63,30.05,5.0,NW,8.1,-,N/A,,Haze,310,2013-08-24 12:15:00
6:35 AM,55.4,42.8,63,30.05,5.0,NW,8.1,-,N/A,,Haze,320,2013-08-24 12:35:00
6:47 AM,55.4,42.8,63,30.05,4.0,West,4.6,-,N/A,,Smoke,280,2013-08-24 12:47:00
6:55 AM,55.4,42.8,63,30.05,5.0,NW,4.6,-,N/A,,Haze,320,2013-08-24 12:55:00
7:47 AM,55.4,42.8,63,30.06,5.0,WNW,9.2,-,N/A,,Smoke,300,2013-08-24 13:47:00
8:47 AM,57.2,42.8,59,30.08,5.0,WNW,11.5,-,N/A,,Smoke,300,2013-08-24 14:47:00
9:50 AM,62.6,42.8,48,30.09,5.0,WNW,8.1,-,N/A,,Smoke,300,2013-08-24 15:50:00
10:47 AM,66.2,44.6,46,30.08,5.0,WNW,5.8,-,N/A,,Smoke,300,2013-08-24 16:47:00
11:47 AM,71.6,48.2,43,30.08,10.0,ESE,8.1,-,N/A,,Scattered Clouds,120,2013-08-24 17:47:00
12:48 PM,75.2,51.8,44,30.05,10.0,SE,6.9,-,N/A,,Scattered Clouds,140,2013-08-24 18:48:00
1:54 PM,75.2,51.8,44,30.04,10.0,SSE,11.5,17.3,N/A,,Mostly Cloudy,160,2013-08-24 19:54:00
2:48 PM,78.8,51.8,39,30.03,10.0,SE,9.2,16.1,N/A,,Mostly Cloudy,130,2013-08-24 20:48:00
3:47 PM,73.4,53.6,50,30.01,10.0,South,9.2,-,N/A,Thunderstorm,Thunderstorm,180,2013-08-24 21:47:00
4:50 PM,62.6,51.8,68,30.01,10.0,North,6.9,-,N/A,Thunderstorm,Thunderstorm,350,2013-08-24 22:50:00
5:49 PM,69.8,48.2,46,30.01,10.0,WNW,9.2,-,N/A,,Mostly Cloudy,300,2013-08-24 23:49:00
6:47 PM,69.8,51.8,53,30.01,10.0,ESE,9.2,-,N/A,Rain-Thunderstorm,Light Thunderstorms and Rain,120,2013-08-25 00:47:00
7:47 PM,68.0,53.6,60,30.02,10.0,Calm,Calm,-,N/A,Thunderstorm,Thunderstorm,0,2013-08-25 01:47:00
8:50 PM,64.4,53.6,68,30.03,10.0,SW,8.1,-,N/A,,Mostly Cloudy,230,2013-08-25 02:50:00
9:50 PM,62.6,53.6,72,30.07,10.0,Calm,Calm,-,N/A,,Mostly Cloudy,0,2013-08-25 03:50:00
10:47 PM,62.6,51.8,68,30.07,10.0,West,6.9,-,N/A,,Mostly Cloudy,280,2013-08-25 04:47:00
11:15 PM,60.8,51.8,72,30.08,10.0,WNW,4.6,-,N/A,,Mostly Cloudy,290,2013-08-25 05:15:00
11:35 PM,60.8,51.8,72,30.08,10.0,NW,9.2,-,N/A,,Scattered Clouds,310,2013-08-25 05:35:00
11:55 PM,60.8,51.8,72,30.08,10.0,WNW,5.8,-,N/A,,Scattered Clouds,290,2013-08-25 05:55:00